Time;durP1;ratioP1;P1;durP2;ratioP2;P2;SDS_P1;SDS_P2;PMS_P1;PMS_P2;Temp;Humidity;BMP_temperature;BMP_pressure;BME280_temperature;BME280_humidity;BME280_pressure;Samples;Min_cycle;Max_cycle;Signal;HPM_P1;HPM_P2
2021/12/18 00:01:33;;;;;;;114.82;45.28;;;7.60;86.90;;;;;;4936555;29;20047;-81
2021/12/18 00:04:01;;;;;;;120.05;44.45;;;7.60;86.80;;;;;;4936504;29;20540;-81
2021/12/18 00:06:30;;;;;;;115.20;44.20;;;7.60;86.80;;;;;;4936647;29;20051;-81
2021/12/18 00:08:58;;;;;;;114.15;44.00;;;7.60;86.80;;;;;;4936110;29;20062;-81
2021/12/18 00:11:25;;;;;;;110.20;43.47;;;7.50;86.80;;;;;;4935764;29;20044;-81
2021/12/18 00:13:53;;;;;;;127.00;44.65;;;7.50;86.70;;;;;;4936200;29;20058;-81
2021/12/18 00:16:21;;;;;;;112.15;42.75;;;7.50;86.70;;;;;;4936337;29;20533;-81
2021/12/18 00:18:51;;;;;;;124.88;44.33;;;7.50;86.60;;;;;;4936280;29;20057;-81
2021/12/18 00:21:19;;;;;;;102.68;42.72;;;7.50;86.60;;;;;;4936360;29;20047;-81
2021/12/18 00:23:46;;;;;;;112.80;43.53;;;7.40;86.60;;;;;;4935086;29;20062;-81
2021/12/18 00:26:14;;;;;;;119.32;44.33;;;7.40;86.50;;;;;;4936433;29;20066;-81
2021/12/18 00:28:41;;;;;;;110.43;41.92;;;7.40;86.50;;;;;;4936069;29;20054;-81
2021/12/18 00:31:08;;;;;;;114.00;43.40;;;7.40;86.50;;;;;;4930712;29;20046;-81
2021/12/18 00:33:35;;;;;;;103.85;41.17;;;7.40;86.50;;;;;;4936153;29;20059;-81
2021/12/18 00:36:02;;;;;;;112.50;42.78;;;7.40;86.50;;;;;;4936225;29;20469;-81
2021/12/18 00:38:30;;;;;;;115.22;42.33;;;7.30;86.40;;;;;;4934823;29;20048;-81
2021/12/18 00:44:00;;;;;;;112.20;41.67;;;7.30;86.40;;;;;;4935964;29;20055;-81
2021/12/18 00:46:25;;;;;;;119.45;43.97;;;7.20;86.40;;;;;;4935967;29;20160;-81
2021/12/18 00:48:53;;;;;;;114.68;41.95;;;7.20;86.40;;;;;;4935855;29;20056;-81
2021/12/18 00:51:20;;;;;;;105.97;42.20;;;7.20;86.40;;;;;;4935535;29;20429;-81
2021/12/18 00:53:47;;;;;;;116.07;42.45;;;7.20;86.40;;;;;;4934923;29;20062;-81
2021/12/18 00:56:14;;;;;;;125.93;43.70;;;7.20;86.40;;;;;;4935865;29;20048;-80
2021/12/18 00:58:41;;;;;;;120.78;42.17;;;7.20;86.40;;;;;;4935792;29;20502;-80
2021/12/18 01:01:10;;;;;;;124.38;42.13;;;7.10;86.40;;;;;;4935808;29;20055;-81
2021/12/18 01:03:40;;;;;;;115.80;41.60;;;7.10;86.40;;;;;;4935793;29;20425;-81
2021/12/18 01:06:08;;;;;;;123.75;41.60;;;7.10;86.40;;;;;;4935574;29;20130;-81
2021/12/18 01:08:35;;;;;;;123.85;42.92;;;7.10;86.40;;;;;;4935057;29;20506;-81
2021/12/18 01:13:39;;;;;;;117.90;42.67;;;7.10;86.40;;;;;;4935552;29;20051;-80
2021/12/18 01:16:15;;;;;;;106.88;41.78;;;7.00;86.40;;;;;;4935721;29;20494;-81
2021/12/18 01:24:18;;;;;;;132.10;44.22;;;7.00;86.50;;;;;;4919285;29;20044;-81
2021/12/18 01:26:45;;;;;;;116.97;41.38;;;7.00;86.40;;;;;;4929902;29;20063;-81
2021/12/18 01:29:12;;;;;;;122.95;42.65;;;7.00;86.40;;;;;;4933540;29;20074;-81
2021/12/18 01:31:39;;;;;;;131.57;44.53;;;6.90;86.40;;;;;;4933310;29;20052;-81
2021/12/18 01:34:06;;;;;;;120.72;42.60;;;7.00;86.50;;;;;;4933267;29;20514;-81
2021/12/18 01:36:33;;;;;;;123.75;43.20;;;7.00;86.40;;;;;;4933033;29;20048;-81
2021/12/18 01:39:03;;;;;;;121.80;42.13;;;7.00;86.50;;;;;;4933321;29;20052;-81
2021/12/18 01:41:48;;;;;;;135.07;44.45;;;6.90;86.40;;;;;;4932553;29;20048;-81
2021/12/18 01:52:20;;;;;;;122.57;44.47;;;6.90;86.40;;;;;;4932951;29;20066;-80
2021/12/18 01:54:47;;;;;;;118.78;43.35;;;6.90;86.40;;;;;;4932986;29;20526;-81
2021/12/18 01:57:14;;;;;;;120.20;43.75;;;6.90;86.40;;;;;;4933265;29;20047;-81
2021/12/18 01:59:47;;;;;;;113.45;43.58;;;6.90;86.50;;;;;;4932347;29;20066;-81
2021/12/18 02:02:15;;;;;;;121.13;45.45;;;6.90;86.40;;;;;;4935140;29;20044;-81
2021/12/18 02:04:42;;;;;;;120.30;43.58;;;6.90;86.40;;;;;;4934895;29;20430;-81
2021/12/18 02:07:10;;;;;;;120.20;45.83;;;6.90;86.40;;;;;;4935058;29;20048;-80
2021/12/18 02:10:03;;;;;;;117.47;43.90;;;6.90;86.40;;;;;;4938570;29;20048;-81
2021/12/18 02:12:35;;;;;;;124.30;45.22;;;6.90;86.40;;;;;;4925557;29;20048;-81
2021/12/18 02:23:03;;;;;;;121.43;45.42;;;6.90;86.40;;;;;;4938423;29;20052;-81
2021/12/18 02:25:32;;;;;;;118.30;44.90;;;6.90;86.40;;;;;;4938269;29;20433;-81
2021/12/18 02:28:00;;;;;;;122.57;45.97;;;6.90;86.40;;;;;;4938271;29;20047;-82
2021/12/18 02:30:27;;;;;;;111.00;45.05;;;6.90;86.30;;;;;;4938438;29;20048;-81
2021/12/18 02:32:54;;;;;;;106.22;45.70;;;6.90;86.40;;;;;;4938083;29;20524;-81
2021/12/18 02:35:28;;;;;;;111.65;45.72;;;6.90;86.30;;;;;;4935563;29;20052;-80
2021/12/18 02:38:12;;;;;;;118.90;46.97;;;6.90;86.30;;;;;;4938057;29;20051;-80
2021/12/18 02:41:03;;;;;;;106.85;46.50;;;6.90;86.30;;;;;;4938088;29;20044;-80
2021/12/18 02:43:38;;;;;;;116.75;45.95;;;6.90;86.30;;;;;;4937964;29;20050;-81
2021/12/18 02:46:07;;;;;;;112.63;45.83;;;6.90;86.30;;;;;;4938047;29;20055;-81
2021/12/18 02:48:37;;;;;;;117.82;46.08;;;6.90;86.30;;;;;;4937734;29;20043;-80
2021/12/18 02:51:06;;;;;;;110.40;45.28;;;6.90;86.30;;;;;;4938186;29;20518;-81
2021/12/18 02:53:35;;;;;;;120.60;48.20;;;6.90;86.30;;;;;;4937155;29;20506;-81
2021/12/18 02:56:06;;;;;;;108.82;45.97;;;6.90;86.30;;;;;;4937614;29;20433;-81
2021/12/18 02:58:40;;;;;;;108.85;47.42;;;6.80;86.20;;;;;;4937845;29;20050;-81
2021/12/18 03:01:10;;;;;;;110.00;47.17;;;6.90;86.30;;;;;;4937871;29;20059;-81
2021/12/18 03:03:40;;;;;;;106.38;46.63;;;6.90;86.20;;;;;;4937438;29;20051;-80
2021/12/18 03:24:40;;;;;;;110.68;48.63;;;6.80;86.10;;;;;;4937232;29;20043;-80
2021/12/18 03:27:07;;;;;;;105.20;46.08;;;6.80;86.10;;;;;;4937265;29;20059;-81
2021/12/18 03:29:34;;;;;;;106.90;48.00;;;6.80;86.10;;;;;;4936612;29;20047;-81
2021/12/18 03:32:02;;;;;;;109.15;49.88;;;6.80;86.10;;;;;;4936768;29;20514;-80
2021/12/18 03:34:29;;;;;;;113.45;48.30;;;6.80;86.10;;;;;;4937113;29;20047;-81
2021/12/18 03:36:56;;;;;;;108.78;49.92;;;6.80;86.10;;;;;;4937067;29;20058;-81
2021/12/18 03:39:23;;;;;;;106.97;48.42;;;6.80;86.00;;;;;;4937072;29;20056;-81
2021/12/18 03:41:50;;;;;;;106.28;47.88;;;6.80;86.10;;;;;;4935426;29;20063;-81
2021/12/18 03:44:17;;;;;;;114.28;50.15;;;6.80;86.00;;;;;;4936406;28;20056;-80
2021/12/18 03:46:44;;;;;;;111.22;49.38;;;6.80;86.00;;;;;;4936508;29;20052;-81
2021/12/18 03:49:11;;;;;;;111.88;49.80;;;6.80;86.00;;;;;;4936796;29;20047;-81
2021/12/18 03:51:38;;;;;;;108.00;49.20;;;6.80;86.00;;;;;;4937060;29;20043;-80
2021/12/18 03:54:06;;;;;;;118.88;52.45;;;6.80;86.00;;;;;;4936529;29;20052;-81
2021/12/18 03:56:34;;;;;;;111.00;49.72;;;6.80;86.00;;;;;;4935996;29;20049;-80
2021/12/18 03:59:01;;;;;;;108.65;49.63;;;6.80;86.00;;;;;;4936744;29;20047;-81
2021/12/18 04:01:28;;;;;;;118.03;51.60;;;6.80;86.00;;;;;;4936250;29;20546;-80
2021/12/18 04:03:55;;;;;;;107.53;49.88;;;6.80;86.00;;;;;;4936512;29;20134;-81
2021/12/18 04:06:23;;;;;;;114.35;50.42;;;6.80;86.00;;;;;;4936753;29;20130;-80
2021/12/18 04:08:50;;;;;;;105.57;49.13;;;6.80;86.00;;;;;;4935966;29;20058;-81
2021/12/18 04:11:17;;;;;;;100.45;47.58;;;6.80;85.90;;;;;;4936090;28;20054;-80
2021/12/18 04:13:46;;;;;;;102.47;48.45;;;6.80;85.90;;;;;;4936340;29;20052;-81
2021/12/18 04:16:14;;;;;;;112.88;50.58;;;6.80;85.90;;;;;;4936124;29;20050;-80
2021/12/18 04:18:41;;;;;;;106.63;48.65;;;6.70;85.90;;;;;;4936493;29;20048;-81
2021/12/18 04:21:08;;;;;;;102.53;46.92;;;6.70;85.80;;;;;;4936427;29;20066;-80
2021/12/18 04:23:35;;;;;;;107.35;48.80;;;6.80;85.80;;;;;;4935558;29;20047;-81
2021/12/18 04:26:02;;;;;;;113.38;49.30;;;6.70;85.80;;;;;;4936241;29;20051;-81
2021/12/18 04:28:29;;;;;;;109.82;49.17;;;6.70;85.80;;;;;;4935968;29;20050;-81
2021/12/18 04:30:56;;;;;;;99.65;47.60;;;6.70;85.80;;;;;;4935760;28;20069;-80
2021/12/18 04:33:23;;;;;;;100.28;47.22;;;6.70;85.80;;;;;;4936221;29;20048;-80
2021/12/18 04:35:50;;;;;;;95.95;46.83;;;6.70;85.70;;;;;;4935591;29;20521;-81
2021/12/18 04:38:17;;;;;;;102.88;46.95;;;6.70;85.70;;;;;;4935562;28;20043;-81
2021/12/18 04:40:44;;;;;;;110.35;47.92;;;6.70;85.70;;;;;;4935953;29;20051;-81
2021/12/18 04:43:11;;;;;;;108.85;48.60;;;6.70;85.70;;;;;;4935577;29;20429;-81
2021/12/18 04:45:38;;;;;;;105.53;49.47;;;6.70;85.70;;;;;;4936170;29;20048;-80
2021/12/18 04:48:05;;;;;;;104.35;48.00;;;6.70;85.60;;;;;;4936057;29;20502;-81
2021/12/18 04:50:33;;;;;;;104.35;47.38;;;6.70;85.60;;;;;;4935247;29;20143;-80
2021/12/18 04:53:00;;;;;;;109.25;48.92;;;6.70;85.60;;;;;;4935838;29;20064;-81
2021/12/18 04:55:27;;;;;;;102.85;47.70;;;6.70;85.60;;;;;;4935575;29;20066;-80
2021/12/18 04:57:55;;;;;;;113.32;48.60;;;6.70;85.60;;;;;;4935517;29;20070;-80
2021/12/18 05:00:29;;;;;;;110.22;49.10;;;6.70;85.60;;;;;;4936008;29;20051;-80
2021/12/18 05:02:59;;;;;;;101.68;46.67;;;6.70;85.60;;;;;;4935800;29;20134;-81
2021/12/18 05:05:26;;;;;;;111.50;48.25;;;6.60;85.50;;;;;;4935292;29;20051;-81
2021/12/18 05:07:53;;;;;;;120.35;50.15;;;6.60;85.50;;;;;;4935561;29;20429;-81
2021/12/18 05:10:20;;;;;;;114.30;49.42;;;6.60;85.50;;;;;;4935687;29;20044;-81
2021/12/18 05:12:47;;;;;;;108.15;48.60;;;6.60;85.50;;;;;;4935183;29;20047;-80
2021/12/18 05:15:14;;;;;;;107.53;47.42;;;6.60;85.50;;;;;;4935621;29;20505;-81
2021/12/18 05:17:42;;;;;;;106.93;48.92;;;6.60;85.50;;;;;;4934890;29;20044;-81
2021/12/18 05:20:09;;;;;;;109.53;49.28;;;6.60;85.50;;;;;;4935258;29;20055;-80
2021/12/18 05:22:37;;;;;;;109.30;49.15;;;6.60;85.40;;;;;;4935536;29;20043;-80
2021/12/18 05:25:05;;;;;;;111.07;52.00;;;6.60;85.40;;;;;;4930571;29;20461;-81
2021/12/18 05:27:36;;;;;;;120.82;53.25;;;6.60;85.40;;;;;;4934503;29;20506;-80
2021/12/18 05:30:08;;;;;;;108.65;50.30;;;6.60;85.40;;;;;;4940224;29;20044;-81
2021/12/18 05:32:35;;;;;;;114.28;51.40;;;6.50;85.40;;;;;;4934307;29;20056;-81
2021/12/18 05:35:04;;;;;;;115.57;54.33;;;6.50;85.30;;;;;;4935182;29;20061;-80
2021/12/18 05:37:52;;;;;;;117.03;54.72;;;6.60;85.30;;;;;;4934838;29;20056;-81
2021/12/18 05:40:21;;;;;;;113.65;52.35;;;6.50;85.30;;;;;;4935119;29;20055;-80
2021/12/18 05:42:50;;;;;;;113.10;52.45;;;6.50;85.20;;;;;;4939706;28;20518;-81
2021/12/18 05:45:18;;;;;;;119.60;54.40;;;6.50;85.20;;;;;;4938686;29;20050;-80
2021/12/18 05:47:46;;;;;;;118.15;54.97;;;6.40;85.20;;;;;;4938260;29;20059;-80
2021/12/18 05:50:16;;;;;;;105.53;51.95;;;6.40;85.10;;;;;;4939949;29;20616;-80
2021/12/18 05:52:45;;;;;;;117.05;54.88;;;6.40;85.10;;;;;;4938237;29;20039;-80
2021/12/18 05:55:15;;;;;;;112.60;53.78;;;6.40;85.10;;;;;;4938133;29;20059;-80
2021/12/18 05:57:42;;;;;;;121.40;55.42;;;6.40;85.10;;;;;;4938511;29;20058;-80
2021/12/18 06:00:11;;;;;;;119.38;54.38;;;6.40;85.00;;;;;;4922009;29;20053;-80
2021/12/18 06:02:38;;;;;;;117.93;53.03;;;6.30;85.00;;;;;;4933774;29;20051;-80
2021/12/18 06:05:07;;;;;;;117.60;53.45;;;6.30;85.00;;;;;;4938288;29;20111;-80
2021/12/18 06:07:52;;;;;;;116.65;54.50;;;6.30;85.00;;;;;;4938031;29;20054;-80
2021/12/18 06:10:19;;;;;;;;;;;6.30;85.00;;;;;;4938485;29;20044;-80
2021/12/18 06:12:46;;;;;;;119.53;53.45;;;6.30;85.00;;;;;;4937796;29;19929;-81
2021/12/18 06:15:13;;;;;;;121.18;54.95;;;6.30;85.00;;;;;;4938270;29;20073;-81
2021/12/18 06:17:40;;;;;;;124.60;55.65;;;6.20;85.00;;;;;;4937879;29;20047;-80
2021/12/18 06:20:09;;;;;;;116.35;53.15;;;6.20;85.00;;;;;;4939124;29;20052;-81
2021/12/18 06:22:36;;;;;;;120.43;55.15;;;6.20;85.00;;;;;;4937878;29;20058;-80
2021/12/18 06:25:04;;;;;;;123.00;56.08;;;6.20;85.00;;;;;;4937676;29;20051;-81
2021/12/18 06:27:31;;;;;;;124.38;54.55;;;6.20;85.00;;;;;;4937871;29;20054;-81
2021/12/18 06:29:58;;;;;;;132.55;55.17;;;6.20;85.00;;;;;;4938157;29;20138;-81
2021/12/18 06:32:25;;;;;;;127.72;57.70;;;6.10;85.00;;;;;;4937377;29;20054;-81
2021/12/18 06:34:52;;;;;;;124.95;55.78;;;6.10;85.00;;;;;;4937550;29;20064;-81
2021/12/18 06:37:19;;;;;;;127.20;57.33;;;6.10;85.00;;;;;;4937968;29;20067;-80
2021/12/18 06:39:46;;;;;;;122.28;54.38;;;6.10;85.00;;;;;;4937562;29;20113;-81
2021/12/18 06:42:33;;;;;;;132.38;55.15;;;6.10;85.00;;;;;;4937643;28;20070;-81
2021/12/18 06:45:00;;;;;;;125.53;55.67;;;6.10;85.00;;;;;;4937797;29;20051;-81
2021/12/18 06:47:27;;;;;;;121.82;54.50;;;6.00;84.90;;;;;;4936951;29;20054;-81
2021/12/18 06:49:54;;;;;;;125.88;54.80;;;6.10;85.00;;;;;;4937312;29;20060;-81
2021/12/18 06:52:21;;;;;;;134.75;58.20;;;6.00;85.00;;;;;;4937740;29;20067;-81
2021/12/18 06:54:48;;;;;;;138.98;57.25;;;6.10;85.00;;;;;;4936562;29;20062;-81
2021/12/18 06:57:15;;;;;;;139.85;56.17;;;6.00;84.90;;;;;;4937232;29;20115;-81
2021/12/18 06:59:42;;;;;;;134.95;56.20;;;6.00;85.00;;;;;;4936826;29;20404;-81
2021/12/18 07:02:09;;;;;;;131.32;56.40;;;6.00;85.00;;;;;;4938893;28;20051;-81
2021/12/18 07:04:37;;;;;;;138.02;58.05;;;6.00;84.90;;;;;;4937101;29;20056;-80
2021/12/18 07:07:04;;;;;;;135.57;57.47;;;6.00;84.90;;;;;;4937504;29;20055;-81
2021/12/18 07:09:31;;;;;;;142.70;60.40;;;6.00;84.90;;;;;;4937027;29;20074;-81
2021/12/18 07:11:58;;;;;;;145.38;58.30;;;6.00;84.90;;;;;;4937008;29;20066;-81
2021/12/18 07:14:27;;;;;;;135.63;55.80;;;6.00;84.90;;;;;;4936216;29;20051;-81
2021/12/18 07:16:54;;;;;;;140.43;57.97;;;6.00;84.90;;;;;;4937080;29;20062;-81
2021/12/18 07:19:21;;;;;;;135.88;54.00;;;6.00;84.90;;;;;;4931682;29;20054;-81
2021/12/18 07:21:48;;;;;;;141.05;57.40;;;5.90;84.90;;;;;;4937243;29;20056;-81
2021/12/18 07:24:15;;;;;;;143.48;58.60;;;5.90;84.90;;;;;;4936789;29;20043;-81
2021/12/18 07:26:42;;;;;;;138.85;57.15;;;5.90;84.90;;;;;;4935669;29;20536;-81
2021/12/18 07:29:09;;;;;;;147.38;57.97;;;5.90;84.90;;;;;;4936539;29;20044;-81
2021/12/18 07:31:36;;;;;;;140.32;56.25;;;5.90;84.90;;;;;;4936719;29;20438;-81
2021/12/18 07:34:03;;;;;;;137.57;55.47;;;5.90;84.90;;;;;;4936723;29;20066;-81
2021/12/18 07:36:30;;;;;;;134.70;55.65;;;5.90;84.90;;;;;;4936994;29;20143;-81
2021/12/18 07:38:57;;;;;;;139.45;56.38;;;5.90;84.90;;;;;;4936333;29;20074;-81
2021/12/18 07:41:24;;;;;;;138.05;55.60;;;5.90;84.90;;;;;;4935755;29;20043;-81
2021/12/18 07:43:52;;;;;;;140.48;57.30;;;5.90;84.90;;;;;;4936556;29;20055;-80
2021/12/18 07:46:19;;;;;;;139.07;57.28;;;5.90;84.90;;;;;;4936757;29;20691;-81
2021/12/18 07:48:46;;;;;;;137.45;56.92;;;5.90;84.90;;;;;;4936694;29;20052;-81
2021/12/18 07:51:13;;;;;;;133.55;57.50;;;5.90;84.90;;;;;;4936715;29;20047;-81
2021/12/18 07:53:40;;;;;;;133.45;54.53;;;5.90;84.90;;;;;;4935587;29;20113;-82
2021/12/18 07:56:09;;;;;;;130.70;56.88;;;5.90;84.90;;;;;;4937895;29;20423;-81
2021/12/18 07:58:37;;;;;;;148.18;57.92;;;5.90;84.90;;;;;;4936142;29;20055;-82
2021/12/18 08:01:04;;;;;;;135.75;57.20;;;5.90;84.90;;;;;;4936302;29;20056;-81
2021/12/18 08:03:31;;;;;;;134.63;56.97;;;5.80;84.90;;;;;;4936566;29;20044;-82
2021/12/18 08:05:59;;;;;;;134.70;57.15;;;5.80;84.90;;;;;;4934925;29;20510;-81
2021/12/18 08:08:26;;;;;;;132.15;55.30;;;5.90;84.90;;;;;;4935348;29;20050;-81
2021/12/18 08:10:53;;;;;;;125.10;53.88;;;5.90;84.90;;;;;;4936324;29;20051;-81
2021/12/18 08:13:20;;;;;;;125.80;55.42;;;5.90;84.90;;;;;;4935979;29;20050;-81
2021/12/18 08:15:49;;;;;;;135.88;55.90;;;5.90;84.90;;;;;;4936258;29;20055;-80
2021/12/18 08:18:16;;;;;;;139.27;57.60;;;5.90;84.90;;;;;;4936662;29;20058;-80
2021/12/18 08:20:44;;;;;;;130.20;54.13;;;5.80;84.90;;;;;;4934687;29;20056;-81
2021/12/18 08:23:11;;;;;;;132.18;54.85;;;5.90;84.90;;;;;;4935829;29;20426;-81
2021/12/18 08:25:38;;;;;;;126.63;55.00;;;5.90;84.90;;;;;;4936148;29;20052;-81
2021/12/18 08:28:06;;;;;;;123.50;54.42;;;5.80;84.90;;;;;;4935681;29;20403;-80
2021/12/18 08:30:35;;;;;;;134.98;55.90;;;5.80;84.90;;;;;;4935014;29;20085;-81
2021/12/18 08:33:04;;;;;;;129.57;53.78;;;5.90;84.90;;;;;;4935870;29;20051;-81
2021/12/18 08:35:32;;;;;;;123.43;54.50;;;5.80;84.90;;;;;;4934446;29;20067;-81
2021/12/18 08:38:00;;;;;;;130.07;53.67;;;5.80;84.90;;;;;;4935689;29;20044;-81
2021/12/18 08:40:29;;;;;;;130.63;55.00;;;5.80;84.90;;;;;;4935967;29;20054;-81
2021/12/18 08:42:56;;;;;;;133.50;53.95;;;5.90;84.90;;;;;;4935537;29;20043;-80
2021/12/18 08:45:24;;;;;;;127.68;56.60;;;5.80;84.80;;;;;;4935707;29;20044;-81
2021/12/18 08:47:51;;;;;;;149.35;59.88;;;5.90;84.90;;;;;;4935300;29;20073;-81
2021/12/18 08:50:20;;;;;;;128.23;55.00;;;5.80;84.90;;;;;;4934627;28;20044;-81
2021/12/18 08:52:49;;;;;;;144.60;58.65;;;5.80;84.80;;;;;;4935606;29;20044;-81
2021/12/18 08:55:19;;;;;;;128.85;54.17;;;5.80;84.90;;;;;;4935561;29;20070;-81
2021/12/18 08:57:46;;;;;;;134.77;55.92;;;5.80;84.80;;;;;;4935255;29;20054;-81
2021/12/18 09:00:17;;;;;;;131.60;56.25;;;5.80;84.90;;;;;;4935515;29;20047;-80
2021/12/18 09:02:47;;;;;;;122.97;54.13;;;5.80;84.90;;;;;;4934801;29;20066;-81
2021/12/18 09:05:16;;;;;;;129.95;54.67;;;5.90;84.90;;;;;;4935339;29;20051;-81
2021/12/18 09:07:44;;;;;;;130.88;55.15;;;5.90;84.90;;;;;;4930140;29;20528;-80
2021/12/18 09:10:14;;;;;;;135.20;56.28;;;5.90;84.90;;;;;;4935590;29;20044;-81
2021/12/18 09:12:43;;;;;;;136.88;57.15;;;5.90;84.90;;;;;;4935276;29;20524;-81
2021/12/18 09:15:11;;;;;;;138.75;56.10;;;5.90;84.90;;;;;;4920537;29;20049;-81
2021/12/18 09:17:38;;;;;;;135.43;57.40;;;5.90;84.90;;;;;;4932213;29;20056;-81
2021/12/18 09:20:06;;;;;;;135.45;55.97;;;5.90;84.90;;;;;;4938743;29;20110;-81
2021/12/18 09:22:33;;;;;;;129.02;56.20;;;5.90;84.90;;;;;;4939205;29;20048;-80
2021/12/18 09:25:05;;;;;;;137.88;56.17;;;5.90;84.90;;;;;;4933700;29;20499;-80
2021/12/18 09:27:33;;;;;;;139.45;54.47;;;5.90;84.90;;;;;;4939000;29;20066;-80
2021/12/18 09:30:01;;;;;;;136.52;56.60;;;5.90;84.80;;;;;;4938989;29;20048;-80
2021/12/18 09:32:29;;;;;;;130.98;53.92;;;5.90;84.90;;;;;;4938734;29;20057;-80
2021/12/18 09:34:57;;;;;;;127.32;54.22;;;5.90;84.80;;;;;;4939013;29;20142;-80
2021/12/18 09:37:24;;;;;;;129.38;54.60;;;5.90;84.80;;;;;;4939208;29;20047;-80
2021/12/18 09:39:51;;;;;;;140.00;54.67;;;5.90;84.80;;;;;;4939321;29;20048;-80
2021/12/18 09:42:18;;;;;;;127.97;53.00;;;5.90;84.80;;;;;;4939451;29;20506;-80
2021/12/18 09:44:48;;;;;;;127.70;55.00;;;5.90;84.80;;;;;;4938256;29;20062;-80
2021/12/18 09:47:17;;;;;;;126.13;53.50;;;5.90;84.80;;;;;;4939135;28;20054;-80
2021/12/18 09:49:45;;;;;;;128.27;53.47;;;5.90;84.80;;;;;;4937869;29;20551;-80
2021/12/18 09:52:13;;;;;;;136.13;55.15;;;5.90;84.80;;;;;;4939074;29;20070;-80
2021/12/18 09:54:40;;;;;;;128.65;54.38;;;5.90;84.80;;;;;;4938705;29;20062;-80
2021/12/18 09:57:07;;;;;;;126.55;53.63;;;5.90;84.80;;;;;;4938966;29;20054;-80
2021/12/18 09:59:36;;;;;;;128.07;52.83;;;5.90;84.80;;;;;;4938242;29;20062;-80
2021/12/18 10:02:04;;;;;;;134.63;54.00;;;5.90;84.80;;;;;;4938350;29;20478;-80
2021/12/18 10:04:37;;;;;;;132.55;53.28;;;6.00;84.80;;;;;;4938939;29;20043;-80
2021/12/18 10:07:23;;;;;;;131.87;56.60;;;6.00;84.80;;;;;;4938688;29;20438;-81
2021/12/18 10:09:52;;;;;;;130.30;53.00;;;6.00;84.80;;;;;;4938779;29;20056;-80
2021/12/18 10:12:24;;;;;;;133.63;55.70;;;6.00;84.70;;;;;;4937546;29;20403;-80
2021/12/18 10:14:53;;;;;;;137.45;56.20;;;6.00;84.70;;;;;;4938066;29;20078;-80
2021/12/18 10:17:39;;;;;;;127.93;52.28;;;6.00;84.70;;;;;;4937570;28;20506;-80
2021/12/18 10:20:18;;;;;;;141.13;55.78;;;6.00;84.80;;;;;;4938482;29;20502;-80
2021/12/18 10:22:50;;;;;;;137.98;56.65;;;6.00;84.70;;;;;;4938406;29;20083;-80
2021/12/18 10:25:23;;;;;;;127.90;55.00;;;6.00;84.70;;;;;;4938356;29;20039;-80
2021/12/18 10:28:19;;;;;;;144.60;55.67;;;6.00;84.70;;;;;;4938259;29;20062;-80
2021/12/18 10:30:50;;;;;;;131.52;53.20;;;6.00;84.70;;;;;;4938247;29;20065;-80
2021/12/18 10:33:17;;;;;;;129.57;53.63;;;6.00;84.70;;;;;;4938292;29;20051;-80
2021/12/18 10:35:50;;;;;;;142.48;56.15;;;6.00;84.70;;;;;;4937572;29;20047;-80
2021/12/18 10:38:54;;;;;;;132.23;54.65;;;6.00;84.70;;;;;;4938856;29;20079;-81
2021/12/18 10:41:28;;;;;;;132.60;55.00;;;6.00;84.70;;;;;;4935400;29;20051;-80
2021/12/18 10:43:59;;;;;;;132.60;54.97;;;6.00;84.70;;;;;;4938112;29;20070;-81
2021/12/18 10:46:28;;;;;;;132.18;55.40;;;6.00;84.70;;;;;;4937820;29;20506;-80
2021/12/18 10:49:00;;;;;;;140.10;55.80;;;6.10;84.70;;;;;;4938048;29;20062;-80
2021/12/18 10:51:30;;;;;;;135.77;55.42;;;6.10;84.70;;;;;;4938093;29;20453;-80
2021/12/18 10:54:06;;;;;;;140.48;56.90;;;6.10;84.70;;;;;;4937975;29;20502;-80
2021/12/18 10:56:39;;;;;;;133.68;54.92;;;6.10;84.70;;;;;;4937107;29;20060;-80
2021/12/18 10:59:20;;;;;;;126.07;53.00;;;6.20;84.70;;;;;;4938051;29;20051;-81
2021/12/18 11:02:00;;;;;;;130.48;53.53;;;6.10;84.70;;;;;;4937473;29;20300;-82
2021/12/18 11:04:33;;;;;;;130.85;54.78;;;6.20;84.70;;;;;;4937850;29;20047;-82
2021/12/18 11:07:19;;;;;;;133.75;53.25;;;6.10;84.60;;;;;;4937731;29;20048;-81
2021/12/18 11:10:10;;;;;;;131.00;54.20;;;6.20;84.70;;;;;;4937659;29;20048;-81
2021/12/18 11:15:19;;;;;;;131.45;52.08;;;6.20;84.70;;;;;;4923252;29;20419;-82
2021/12/18 11:17:47;;;;;;;135.65;54.42;;;6.20;84.60;;;;;;4936744;29;20502;-81
2021/12/18 11:20:14;;;;;;;128.32;52.78;;;6.20;84.60;;;;;;4937712;29;20058;-80
2021/12/18 11:22:41;;;;;;;135.45;54.70;;;6.20;84.60;;;;;;4937322;29;20511;-80
2021/12/18 11:25:12;;;;;;;137.25;55.50;;;6.30;84.60;;;;;;4937337;29;20050;-81
2021/12/18 11:27:40;;;;;;;135.48;55.08;;;6.30;84.60;;;;;;4937295;29;20528;-81
2021/12/18 11:30:16;;;;;;;127.30;52.45;;;6.20;84.60;;;;;;4935848;29;20051;-81
2021/12/18 11:32:54;;;;;;;128.38;53.75;;;6.30;84.60;;;;;;4933008;29;20518;-81
2021/12/18 11:35:23;;;;;;;135.82;54.75;;;6.30;84.50;;;;;;4938494;28;20103;-81
2021/12/18 11:38:07;;;;;;;132.07;51.45;;;6.30;84.50;;;;;;4936970;29;20134;-81
2021/12/18 11:40:37;;;;;;;132.73;53.67;;;6.30;84.50;;;;;;4937001;29;20503;-81
2021/12/18 11:43:28;;;;;;;138.40;53.38;;;6.30;84.50;;;;;;4936988;29;21624;-81
2021/12/18 11:45:55;;;;;;;129.70;52.63;;;6.30;84.50;;;;;;4936953;29;20048;-81
2021/12/18 11:48:22;;;;;;;128.80;52.17;;;6.40;84.50;;;;;;4937110;29;20450;-80
2021/12/18 11:50:49;;;;;;;126.60;52.08;;;6.40;84.50;;;;;;4936064;29;20142;-80
2021/12/18 11:53:19;;;;;;;127.32;53.67;;;6.40;84.50;;;;;;4936648;28;20088;-81
2021/12/18 11:55:49;;;;;;;132.65;52.78;;;6.40;84.50;;;;;;4936559;29;20055;-81
2021/12/18 11:58:22;;;;;;;139.30;53.38;;;6.40;84.50;;;;;;4936376;29;20044;-81
2021/12/18 12:00:59;;;;;;;133.68;52.65;;;6.40;84.50;;;;;;4936732;29;20079;-81
2021/12/18 12:03:36;;;;;;;128.77;52.97;;;6.40;84.50;;;;;;4936671;29;20051;-81
2021/12/18 12:06:24;;;;;;;134.13;52.47;;;6.40;84.50;;;;;;4936679;29;20489;-81
2021/12/18 12:09:33;;;;;;;123.05;51.75;;;6.50;84.50;;;;;;4933575;29;20051;-81
2021/12/18 12:12:06;;;;;;;130.30;52.72;;;6.50;84.50;;;;;;4935432;29;20054;-81
2021/12/18 12:14:35;;;;;;;130.90;51.47;;;6.50;84.40;;;;;;4935444;29;20051;-81
2021/12/18 12:17:30;;;;;;;125.30;50.97;;;6.50;84.40;;;;;;4936457;29;20418;-81
2021/12/18 12:20:05;;;;;;;132.05;51.65;;;6.50;84.50;;;;;;4936140;29;20047;-81
2021/12/18 12:22:35;;;;;;;135.05;53.13;;;6.50;84.50;;;;;;4936356;29;20047;-81
2021/12/18 12:25:13;;;;;;;131.60;52.08;;;6.50;84.50;;;;;;4936399;29;20044;-81
2021/12/18 12:27:45;;;;;;;138.40;53.13;;;6.50;84.40;;;;;;4936028;29;20052;-81
2021/12/18 12:30:34;;;;;;;132.95;52.08;;;6.50;84.50;;;;;;4921876;29;20290;-81
2021/12/18 12:33:02;;;;;;;;;;;6.50;84.40;;;;;;4936725;29;20049;-81
2021/12/18 12:35:56;;;;;;;129.25;49.95;;;6.50;84.40;;;;;;4935367;29;20464;-81
2021/12/18 12:38:56;;;;;;;127.95;51.67;;;6.50;84.40;;;;;;4933513;29;20430;-81
2021/12/18 12:41:27;;;;;;;144.85;51.95;;;6.60;84.40;;;;;;4933173;29;20054;-81
2021/12/18 12:43:57;;;;;;;128.30;49.65;;;6.60;84.40;;;;;;4936037;29;20061;-80
2021/12/18 12:46:25;;;;;;;126.30;49.63;;;6.60;84.40;;;;;;4936004;29;20528;-80
2021/12/18 12:49:09;;;;;;;144.40;52.28;;;6.60;84.50;;;;;;4930565;29;20044;-80
2021/12/18 12:52:02;;;;;;;130.53;51.07;;;6.60;84.50;;;;;;4935510;28;20043;-80
2021/12/18 12:54:38;;;;;;;132.77;51.85;;;6.60;84.50;;;;;;4923104;29;20067;-80
2021/12/18 12:57:23;;;;;;;134.30;52.28;;;6.70;84.40;;;;;;4935506;29;20066;-80
2021/12/18 12:59:57;;;;;;;136.07;52.42;;;6.70;84.50;;;;;;4932569;29;20047;-80
2021/12/18 13:02:24;;;;;;;;;;;6.70;84.40;;;;;;4933792;29;20430;-80
2021/12/18 13:05:05;;;;;;;129.95;49.65;;;6.70;84.40;;;;;;4935677;29;20382;-81
2021/12/18 13:07:33;;;;;;;130.88;49.72;;;6.70;84.40;;;;;;4935674;29;20399;-80
2021/12/18 13:10:00;;;;;;;125.75;48.83;;;6.70;84.40;;;;;;4935682;29;20055;-80
2021/12/18 13:12:27;;;;;;;119.60;48.70;;;6.70;84.40;;;;;;4935469;29;20054;-80
2021/12/18 13:14:55;;;;;;;121.43;48.75;;;6.70;84.40;;;;;;4935581;29;20065;-80
2021/12/18 13:17:27;;;;;;;127.88;50.20;;;6.70;84.40;;;;;;4932772;29;20400;-81
2021/12/18 13:20:02;;;;;;;113.53;47.35;;;6.70;84.40;;;;;;4935628;29;20055;-80
2021/12/18 13:22:32;;;;;;;124.38;48.17;;;6.80;84.40;;;;;;4935655;29;20502;-80
2021/12/18 13:25:11;;;;;;;116.97;46.40;;;6.80;84.40;;;;;;4935233;29;20060;-80
2021/12/18 13:27:41;;;;;;;134.00;50.00;;;6.80;84.40;;;;;;4935659;29;20430;-80
2021/12/18 13:30:19;;;;;;;127.40;49.20;;;6.80;84.30;;;;;;4935697;29;20047;-80
2021/12/18 13:32:58;;;;;;;123.93;49.35;;;6.80;84.30;;;;;;4931665;29;20527;-80